sensor_id;sensor_type;location;lat;lon;timestamp;P1;durP1;ratioP1;P2;durP2;ratioP2
82811;SDS011;72567;55.696;37.960;2023-10-31T00:01:46;6.53;;;3.65;;
82811;SDS011;72567;55.696;37.960;2023-10-31T00:04:49;6.30;;;3.08;;
82811;SDS011;72567;55.696;37.960;2023-10-31T00:07:49;4.93;;;3.08;;
82811;SDS011;72567;55.696;37.960;2023-10-31T00:10:50;6.15;;;3.35;;
82811;SDS011;72567;55.696;37.960;2023-10-31T00:13:50;6.05;;;3.20;;
82811;SDS011;72567;55.696;37.960;2023-10-31T00:16:51;5.75;;;3.03;;
82811;SDS011;72567;55.696;37.960;2023-10-31T00:19:52;7.88;;;3.38;;
82811;SDS011;72567;55.696;37.960;2023-10-31T00:22:52;8.50;;;3.63;;
82811;SDS011;72567;55.696;37.960;2023-10-31T00:25:53;8.70;;;3.05;;
82811;SDS011;72567;55.696;37.960;2023-10-31T00:28:54;6.80;;;3.00;;
82811;SDS011;72567;55.696;37.960;2023-10-31T00:31:54;5.53;;;3.00;;
82811;SDS011;72567;55.696;37.960;2023-10-31T00:34:55;5.53;;;3.20;;
82811;SDS011;72567;55.696;37.960;2023-10-31T00:37:55;5.82;;;2.72;;
82811;SDS011;72567;55.696;37.960;2023-10-31T00:40:56;7.47;;;2.50;;
82811;SDS011;72567;55.696;37.960;2023-10-31T00:43:56;7.05;;;2.30;;
82811;SDS011;72567;55.696;37.960;2023-10-31T00:46:57;5.63;;;2.55;;
82811;SDS011;72567;55.696;37.960;2023-10-31T00:49:58;7.25;;;3.05;;
82811;SDS011;72567;55.696;37.960;2023-10-31T00:52:58;7.30;;;3.33;;
82811;SDS011;72567;55.696;37.960;2023-10-31T00:55:59;5.43;;;2.60;;
82811;SDS011;72567;55.696;37.960;2023-10-31T00:59:00;6.10;;;2.80;;
82811;SDS011;72567;55.696;37.960;2023-10-31T01:02:00;5.32;;;3.00;;
82811;SDS011;72567;55.696;37.960;2023-10-31T01:05:01;6.40;;;2.50;;
82811;SDS011;72567;55.696;37.960;2023-10-31T01:08:04;6.65;;;3.08;;
82811;SDS011;72567;55.696;37.960;2023-10-31T01:11:04;7.35;;;3.00;;
82811;SDS011;72567;55.696;37.960;2023-10-31T01:14:05;4.03;;;2.22;;
82811;SDS011;72567;55.696;37.960;2023-10-31T01:17:05;5.97;;;3.17;;
82811;SDS011;72567;55.696;37.960;2023-10-31T01:20:06;5.82;;;3.22;;
82811;SDS011;72567;55.696;37.960;2023-10-31T01:23:07;6.82;;;2.83;;
82811;SDS011;72567;55.696;37.960;2023-10-31T01:26:08;6.55;;;2.67;;
82811;SDS011;72567;55.696;37.960;2023-10-31T01:29:09;5.80;;;2.70;;
82811;SDS011;72567;55.696;37.960;2023-10-31T01:32:09;5.20;;;2.25;;
82811;SDS011;72567;55.696;37.960;2023-10-31T01:35:10;4.00;;;2.53;;
82811;SDS011;72567;55.696;37.960;2023-10-31T01:38:10;4.80;;;2.80;;
82811;SDS011;72567;55.696;37.960;2023-10-31T01:41:11;5.82;;;2.65;;
82811;SDS011;72567;55.696;37.960;2023-10-31T01:44:12;4.63;;;2.42;;
82811;SDS011;72567;55.696;37.960;2023-10-31T01:47:12;4.78;;;2.72;;
82811;SDS011;72567;55.696;37.960;2023-10-31T01:50:13;6.80;;;2.63;;
82811;SDS011;72567;55.696;37.960;2023-10-31T01:53:13;7.18;;;3.10;;
82811;SDS011;72567;55.696;37.960;2023-10-31T01:56:14;4.63;;;2.30;;
82811;SDS011;72567;55.696;37.960;2023-10-31T01:59:15;5.85;;;2.58;;
82811;SDS011;72567;55.696;37.960;2023-10-31T02:02:15;6.35;;;3.47;;
82811;SDS011;72567;55.696;37.960;2023-10-31T02:05:16;6.05;;;2.70;;
82811;SDS011;72567;55.696;37.960;2023-10-31T02:08:17;4.75;;;2.70;;
82811;SDS011;72567;55.696;37.960;2023-10-31T02:11:17;4.40;;;2.58;;
82811;SDS011;72567;55.696;37.960;2023-10-31T02:14:18;5.20;;;2.50;;
82811;SDS011;72567;55.696;37.960;2023-10-31T02:17:20;6.22;;;3.30;;
82811;SDS011;72567;55.696;37.960;2023-10-31T02:20:20;4.63;;;2.47;;
82811;SDS011;72567;55.696;37.960;2023-10-31T02:23:21;4.28;;;2.63;;
82811;SDS011;72567;55.696;37.960;2023-10-31T02:26:21;5.78;;;2.78;;
82811;SDS011;72567;55.696;37.960;2023-10-31T02:29:22;7.03;;;2.80;;
82811;SDS011;72567;55.696;37.960;2023-10-31T02:32:23;5.82;;;2.78;;
82811;SDS011;72567;55.696;37.960;2023-10-31T02:35:23;5.47;;;2.60;;
82811;SDS011;72567;55.696;37.960;2023-10-31T02:38:24;5.07;;;2.60;;
82811;SDS011;72567;55.696;37.960;2023-10-31T02:41:24;5.03;;;2.60;;
82811;SDS011;72567;55.696;37.960;2023-10-31T02:44:25;4.93;;;2.80;;
82811;SDS011;72567;55.696;37.960;2023-10-31T02:47:25;8.32;;;2.70;;
82811;SDS011;72567;55.696;37.960;2023-10-31T02:50:26;4.03;;;2.22;;
82811;SDS011;72567;55.696;37.960;2023-10-31T02:53:26;4.60;;;2.78;;
82811;SDS011;72567;55.696;37.960;2023-10-31T02:56:27;5.25;;;2.78;;
82811;SDS011;72567;55.696;37.960;2023-10-31T02:59:28;5.95;;;2.50;;
82811;SDS011;72567;55.696;37.960;2023-10-31T03:02:28;4.45;;;2.13;;
82811;SDS011;72567;55.696;37.960;2023-10-31T03:05:30;4.70;;;2.67;;
82811;SDS011;72567;55.696;37.960;2023-10-31T03:08:30;6.18;;;2.80;;
82811;SDS011;72567;55.696;37.960;2023-10-31T03:11:31;5.10;;;2.60;;
82811;SDS011;72567;55.696;37.960;2023-10-31T03:14:32;5.53;;;2.50;;
82811;SDS011;72567;55.696;37.960;2023-10-31T03:17:33;4.07;;;2.40;;
82811;SDS011;72567;55.696;37.960;2023-10-31T03:20:33;6.40;;;2.80;;
82811;SDS011;72567;55.696;37.960;2023-10-31T03:23:34;6.55;;;2.90;;
82811;SDS011;72567;55.696;37.960;2023-10-31T03:26:34;9.02;;;2.95;;
82811;SDS011;72567;55.696;37.960;2023-10-31T03:29:35;5.80;;;2.78;;
82811;SDS011;72567;55.696;37.960;2023-10-31T03:32:35;4.82;;;2.60;;
82811;SDS011;72567;55.696;37.960;2023-10-31T03:35:36;6.05;;;2.88;;
82811;SDS011;72567;55.696;37.960;2023-10-31T03:38:37;5.53;;;2.55;;
82811;SDS011;72567;55.696;37.960;2023-10-31T03:41:38;7.05;;;2.83;;
82811;SDS011;72567;55.696;37.960;2023-10-31T03:44:38;5.95;;;2.83;;
82811;SDS011;72567;55.696;37.960;2023-10-31T03:47:39;7.35;;;3.20;;
82811;SDS011;72567;55.696;37.960;2023-10-31T03:50:39;5.13;;;2.80;;
82811;SDS011;72567;55.696;37.960;2023-10-31T03:53:40;6.13;;;3.20;;
82811;SDS011;72567;55.696;37.960;2023-10-31T03:56:41;5.57;;;2.63;;
82811;SDS011;72567;55.696;37.960;2023-10-31T03:59:42;4.97;;;2.78;;
82811;SDS011;72567;55.696;37.960;2023-10-31T04:02:43;5.35;;;3.17;;
82811;SDS011;72567;55.696;37.960;2023-10-31T04:05:43;8.38;;;3.28;;
82811;SDS011;72567;55.696;37.960;2023-10-31T04:08:44;7.60;;;3.22;;
82811;SDS011;72567;55.696;37.960;2023-10-31T04:11:45;8.02;;;3.05;;
82811;SDS011;72567;55.696;37.960;2023-10-31T04:14:45;7.68;;;3.40;;
82811;SDS011;72567;55.696;37.960;2023-10-31T04:17:46;6.35;;;3.22;;
82811;SDS011;72567;55.696;37.960;2023-10-31T04:20:46;9.43;;;3.42;;
82811;SDS011;72567;55.696;37.960;2023-10-31T04:23:47;7.13;;;3.28;;
82811;SDS011;72567;55.696;37.960;2023-10-31T04:26:47;6.88;;;3.35;;
82811;SDS011;72567;55.696;37.960;2023-10-31T04:29:48;6.78;;;3.60;;
82811;SDS011;72567;55.696;37.960;2023-10-31T04:32:49;6.90;;;3.13;;
82811;SDS011;72567;55.696;37.960;2023-10-31T04:35:49;7.20;;;3.47;;
82811;SDS011;72567;55.696;37.960;2023-10-31T04:38:50;8.45;;;4.25;;
82811;SDS011;72567;55.696;37.960;2023-10-31T04:41:50;7.85;;;3.83;;
82811;SDS011;72567;55.696;37.960;2023-10-31T04:44:51;8.75;;;3.78;;
82811;SDS011;72567;55.696;37.960;2023-10-31T04:47:51;5.45;;;3.20;;
82811;SDS011;72567;55.696;37.960;2023-10-31T04:50:52;5.85;;;3.38;;
82811;SDS011;72567;55.696;37.960;2023-10-31T04:53:53;5.22;;;2.92;;
82811;SDS011;72567;55.696;37.960;2023-10-31T04:56:53;10.73;;;3.90;;
82811;SDS011;72567;55.696;37.960;2023-10-31T04:59:54;8.02;;;3.80;;
82811;SDS011;72567;55.696;37.960;2023-10-31T05:02:55;8.30;;;3.55;;
82811;SDS011;72567;55.696;37.960;2023-10-31T05:05:57;6.45;;;3.67;;
82811;SDS011;72567;55.696;37.960;2023-10-31T05:08:57;6.43;;;3.67;;
82811;SDS011;72567;55.696;37.960;2023-10-31T05:11:58;7.20;;;4.20;;
82811;SDS011;72567;55.696;37.960;2023-10-31T05:14:58;9.45;;;3.83;;
82811;SDS011;72567;55.696;37.960;2023-10-31T05:17:59;10.50;;;5.75;;
82811;SDS011;72567;55.696;37.960;2023-10-31T05:20:59;9.80;;;6.18;;
82811;SDS011;72567;55.696;37.960;2023-10-31T05:24:00;10.23;;;6.32;;
82811;SDS011;72567;55.696;37.960;2023-10-31T05:27:01;12.30;;;5.00;;
82811;SDS011;72567;55.696;37.960;2023-10-31T05:30:01;9.98;;;5.63;;
82811;SDS011;72567;55.696;37.960;2023-10-31T05:33:05;12.70;;;5.85;;
82811;SDS011;72567;55.696;37.960;2023-10-31T05:36:06;13.07;;;7.63;;
82811;SDS011;72567;55.696;37.960;2023-10-31T05:39:07;17.65;;;11.30;;
82811;SDS011;72567;55.696;37.960;2023-10-31T05:42:08;24.95;;;12.50;;
82811;SDS011;72567;55.696;37.960;2023-10-31T05:45:09;25.02;;;17.83;;
82811;SDS011;72567;55.696;37.960;2023-10-31T05:48:10;21.50;;;14.90;;
82811;SDS011;72567;55.696;37.960;2023-10-31T05:51:11;21.52;;;15.48;;
82811;SDS011;72567;55.696;37.960;2023-10-31T05:54:24;18.50;;;12.95;;
82811;SDS011;72567;55.696;37.960;2023-10-31T05:57:26;22.33;;;13.30;;
82811;SDS011;72567;55.696;37.960;2023-10-31T06:00:26;13.65;;;8.45;;
82811;SDS011;72567;55.696;37.960;2023-10-31T06:03:27;11.98;;;7.68;;
82811;SDS011;72567;55.696;37.960;2023-10-31T06:06:27;13.65;;;8.55;;
82811;SDS011;72567;55.696;37.960;2023-10-31T06:09:29;11.35;;;6.72;;
82811;SDS011;72567;55.696;37.960;2023-10-31T06:12:30;14.20;;;7.30;;
82811;SDS011;72567;55.696;37.960;2023-10-31T06:15:30;11.93;;;7.68;;
82811;SDS011;72567;55.696;37.960;2023-10-31T06:18:31;13.90;;;7.50;;
82811;SDS011;72567;55.696;37.960;2023-10-31T06:21:31;10.98;;;6.63;;
82811;SDS011;72567;55.696;37.960;2023-10-31T06:24:32;13.88;;;7.40;;
82811;SDS011;72567;55.696;37.960;2023-10-31T06:27:33;14.05;;;7.55;;
82811;SDS011;72567;55.696;37.960;2023-10-31T06:30:33;14.13;;;7.63;;
82811;SDS011;72567;55.696;37.960;2023-10-31T06:33:34;12.43;;;8.10;;
82811;SDS011;72567;55.696;37.960;2023-10-31T06:36:34;15.07;;;8.10;;
82811;SDS011;72567;55.696;37.960;2023-10-31T06:39:35;14.55;;;8.60;;
82811;SDS011;72567;55.696;37.960;2023-10-31T06:42:36;15.65;;;7.63;;
82811;SDS011;72567;55.696;37.960;2023-10-31T06:45:36;12.73;;;7.78;;
82811;SDS011;72567;55.696;37.960;2023-10-31T06:48:37;15.18;;;8.07;;
82811;SDS011;72567;55.696;37.960;2023-10-31T06:51:38;13.07;;;8.32;;
82811;SDS011;72567;55.696;37.960;2023-10-31T06:54:38;14.68;;;8.20;;
82811;SDS011;72567;55.696;37.960;2023-10-31T06:57:39;15.05;;;8.38;;
82811;SDS011;72567;55.696;37.960;2023-10-31T07:00:39;17.58;;;8.32;;
82811;SDS011;72567;55.696;37.960;2023-10-31T07:03:40;18.38;;;8.55;;
82811;SDS011;72567;55.696;37.960;2023-10-31T07:06:40;22.55;;;8.93;;
82811;SDS011;72567;55.696;37.960;2023-10-31T07:09:41;23.08;;;9.77;;
82811;SDS011;72567;55.696;37.960;2023-10-31T07:12:42;16.92;;;10.32;;
82811;SDS011;72567;55.696;37.960;2023-10-31T07:15:42;12.30;;;7.70;;
82811;SDS011;72567;55.696;37.960;2023-10-31T07:18:43;13.93;;;7.55;;
82811;SDS011;72567;55.696;37.960;2023-10-31T07:21:44;18.10;;;7.72;;
82811;SDS011;72567;55.696;37.960;2023-10-31T07:24:44;13.00;;;7.00;;
82811;SDS011;72567;55.696;37.960;2023-10-31T07:27:45;10.35;;;6.50;;
82811;SDS011;72567;55.696;37.960;2023-10-31T07:30:45;12.38;;;7.35;;
82811;SDS011;72567;55.696;37.960;2023-10-31T07:33:46;12.35;;;6.72;;
82811;SDS011;72567;55.696;37.960;2023-10-31T07:36:46;13.27;;;7.32;;
82811;SDS011;72567;55.696;37.960;2023-10-31T07:39:50;16.10;;;7.85;;
82811;SDS011;72567;55.696;37.960;2023-10-31T07:42:51;19.85;;;9.00;;
82811;SDS011;72567;55.696;37.960;2023-10-31T07:45:52;21.67;;;8.13;;
82811;SDS011;72567;55.696;37.960;2023-10-31T07:48:52;17.88;;;8.35;;
82811;SDS011;72567;55.696;37.960;2023-10-31T07:51:57;17.60;;;9.60;;
82811;SDS011;72567;55.696;37.960;2023-10-31T07:54:57;24.30;;;11.60;;
82811;SDS011;72567;55.696;37.960;2023-10-31T07:57:58;24.15;;;10.73;;
82811;SDS011;72567;55.696;37.960;2023-10-31T08:00:59;21.25;;;10.90;;
82811;SDS011;72567;55.696;37.960;2023-10-31T08:03:59;19.08;;;8.90;;
82811;SDS011;72567;55.696;37.960;2023-10-31T08:07:00;22.52;;;10.95;;
82811;SDS011;72567;55.696;37.960;2023-10-31T08:10:01;16.10;;;7.93;;
82811;SDS011;72567;55.696;37.960;2023-10-31T08:13:02;20.20;;;10.00;;
82811;SDS011;72567;55.696;37.960;2023-10-31T08:16:03;17.13;;;8.43;;
82811;SDS011;72567;55.696;37.960;2023-10-31T08:19:04;16.92;;;9.10;;
82811;SDS011;72567;55.696;37.960;2023-10-31T08:22:05;18.73;;;10.43;;
82811;SDS011;72567;55.696;37.960;2023-10-31T08:25:06;20.38;;;11.02;;
82811;SDS011;72567;55.696;37.960;2023-10-31T08:28:07;21.00;;;11.15;;
82811;SDS011;72567;55.696;37.960;2023-10-31T08:31:07;23.15;;;11.85;;
82811;SDS011;72567;55.696;37.960;2023-10-31T08:34:08;19.35;;;11.35;;
82811;SDS011;72567;55.696;37.960;2023-10-31T08:37:08;16.67;;;9.65;;
82811;SDS011;72567;55.696;37.960;2023-10-31T08:40:09;13.07;;;8.40;;
82811;SDS011;72567;55.696;37.960;2023-10-31T08:43:10;13.63;;;7.70;;
82811;SDS011;72567;55.696;37.960;2023-10-31T08:46:11;17.90;;;7.38;;
82811;SDS011;72567;55.696;37.960;2023-10-31T08:49:12;17.42;;;8.88;;
82811;SDS011;72567;55.696;37.960;2023-10-31T08:52:14;15.90;;;8.85;;
82811;SDS011;72567;55.696;37.960;2023-10-31T08:55:14;13.65;;;8.68;;
82811;SDS011;72567;55.696;37.960;2023-10-31T08:58:15;20.15;;;8.82;;
82811;SDS011;72567;55.696;37.960;2023-10-31T09:01:18;16.75;;;9.52;;
82811;SDS011;72567;55.696;37.960;2023-10-31T09:04:19;16.55;;;10.98;;
82811;SDS011;72567;55.696;37.960;2023-10-31T09:07:20;21.55;;;11.18;;
82811;SDS011;72567;55.696;37.960;2023-10-31T09:10:20;23.05;;;11.82;;
82811;SDS011;72567;55.696;37.960;2023-10-31T09:13:21;21.85;;;11.82;;
82811;SDS011;72567;55.696;37.960;2023-10-31T09:16:21;23.40;;;12.70;;
82811;SDS011;72567;55.696;37.960;2023-10-31T09:19:22;32.95;;;16.88;;
82811;SDS011;72567;55.696;37.960;2023-10-31T09:22:23;32.88;;;16.73;;
82811;SDS011;72567;55.696;37.960;2023-10-31T09:25:23;31.48;;;18.17;;
82811;SDS011;72567;55.696;37.960;2023-10-31T09:28:24;32.55;;;18.85;;
82811;SDS011;72567;55.696;37.960;2023-10-31T09:31:24;30.52;;;14.77;;
82811;SDS011;72567;55.696;37.960;2023-10-31T09:34:25;30.80;;;16.23;;
82811;SDS011;72567;55.696;37.960;2023-10-31T09:37:26;30.77;;;15.90;;
82811;SDS011;72567;55.696;37.960;2023-10-31T09:40:26;29.17;;;15.02;;
82811;SDS011;72567;55.696;37.960;2023-10-31T09:43:27;30.75;;;14.90;;
82811;SDS011;72567;55.696;37.960;2023-10-31T09:46:30;35.60;;;17.30;;
82811;SDS011;72567;55.696;37.960;2023-10-31T09:49:32;27.27;;;15.57;;
82811;SDS011;72567;55.696;37.960;2023-10-31T09:52:34;28.60;;;14.15;;
82811;SDS011;72567;55.696;37.960;2023-10-31T09:55:36;29.20;;;15.07;;
82811;SDS011;72567;55.696;37.960;2023-10-31T09:58:37;27.75;;;13.40;;
82811;SDS011;72567;55.696;37.960;2023-10-31T10:01:39;24.67;;;12.88;;
82811;SDS011;72567;55.696;37.960;2023-10-31T10:04:40;26.80;;;13.77;;
82811;SDS011;72567;55.696;37.960;2023-10-31T10:07:41;23.30;;;12.30;;
82811;SDS011;72567;55.696;37.960;2023-10-31T10:10:43;24.17;;;11.63;;
82811;SDS011;72567;55.696;37.960;2023-10-31T10:13:44;23.58;;;11.95;;
82811;SDS011;72567;55.696;37.960;2023-10-31T10:16:45;22.23;;;11.35;;
82811;SDS011;72567;55.696;37.960;2023-10-31T10:19:46;21.63;;;12.02;;
82811;SDS011;72567;55.696;37.960;2023-10-31T10:22:46;20.77;;;11.18;;
82811;SDS011;72567;55.696;37.960;2023-10-31T10:25:50;20.98;;;12.18;;
82811;SDS011;72567;55.696;37.960;2023-10-31T10:28:51;20.40;;;12.13;;
82811;SDS011;72567;55.696;37.960;2023-10-31T10:31:52;20.02;;;11.13;;
82811;SDS011;72567;55.696;37.960;2023-10-31T10:34:52;20.77;;;11.77;;
82811;SDS011;72567;55.696;37.960;2023-10-31T10:37:54;25.65;;;12.88;;
82811;SDS011;72567;55.696;37.960;2023-10-31T10:40:56;23.67;;;14.55;;
82811;SDS011;72567;55.696;37.960;2023-10-31T10:44:04;30.70;;;19.70;;
82811;SDS011;72567;55.696;37.960;2023-10-31T10:47:06;25.05;;;17.13;;
82811;SDS011;72567;55.696;37.960;2023-10-31T10:50:07;28.02;;;17.08;;
82811;SDS011;72567;55.696;37.960;2023-10-31T10:56:31;20.15;;;12.23;;
82811;SDS011;72567;55.696;37.960;2023-10-31T10:59:42;19.13;;;11.60;;
82811;SDS011;72567;55.696;37.960;2023-10-31T11:05:45;22.50;;;12.32;;
82811;SDS011;72567;55.696;37.960;2023-10-31T11:08:46;18.77;;;12.52;;
82811;SDS011;72567;55.696;37.960;2023-10-31T11:11:47;19.23;;;11.52;;
82811;SDS011;72567;55.696;37.960;2023-10-31T11:14:52;20.25;;;11.63;;
82811;SDS011;72567;55.696;37.960;2023-10-31T11:17:52;20.90;;;12.23;;
82811;SDS011;72567;55.696;37.960;2023-10-31T11:20:55;25.75;;;14.45;;
82811;SDS011;72567;55.696;37.960;2023-10-31T11:23:59;20.13;;;12.43;;
82811;SDS011;72567;55.696;37.960;2023-10-31T11:27:00;18.08;;;12.57;;
82811;SDS011;72567;55.696;37.960;2023-10-31T11:33:25;15.75;;;11.20;;
82811;SDS011;72567;55.696;37.960;2023-10-31T11:36:26;24.27;;;12.30;;
82811;SDS011;72567;55.696;37.960;2023-10-31T11:39:26;24.30;;;12.68;;
82811;SDS011;72567;55.696;37.960;2023-10-31T11:42:27;17.63;;;11.23;;
82811;SDS011;72567;55.696;37.960;2023-10-31T11:45:29;19.63;;;11.70;;
82811;SDS011;72567;55.696;37.960;2023-10-31T11:49:03;25.73;;;12.95;;
82811;SDS011;72567;55.696;37.960;2023-10-31T11:51:57;17.52;;;11.60;;
82811;SDS011;72567;55.696;37.960;2023-10-31T11:54:58;19.38;;;10.73;;
82811;SDS011;72567;55.696;37.960;2023-10-31T11:57:58;17.25;;;11.02;;
82811;SDS011;72567;55.696;37.960;2023-10-31T12:01:11;18.77;;;11.63;;
82811;SDS011;72567;55.696;37.960;2023-10-31T12:04:20;19.42;;;12.40;;
82811;SDS011;72567;55.696;37.960;2023-10-31T12:07:22;18.58;;;11.07;;
82811;SDS011;72567;55.696;37.960;2023-10-31T12:10:24;15.93;;;9.85;;
82811;SDS011;72567;55.696;37.960;2023-10-31T12:13:25;17.63;;;8.15;;
82811;SDS011;72567;55.696;37.960;2023-10-31T12:16:27;16.85;;;9.00;;
82811;SDS011;72567;55.696;37.960;2023-10-31T12:19:29;17.48;;;9.38;;
82811;SDS011;72567;55.696;37.960;2023-10-31T12:22:30;14.93;;;8.07;;
82811;SDS011;72567;55.696;37.960;2023-10-31T12:25:31;15.77;;;8.13;;
82811;SDS011;72567;55.696;37.960;2023-10-31T12:28:35;13.88;;;8.90;;
82811;SDS011;72567;55.696;37.960;2023-10-31T12:31:46;14.82;;;8.80;;
82811;SDS011;72567;55.696;37.960;2023-10-31T12:34:52;18.33;;;11.77;;
82811;SDS011;72567;55.696;37.960;2023-10-31T12:37:52;16.58;;;11.38;;
82811;SDS011;72567;55.696;37.960;2023-10-31T12:40:53;19.15;;;10.63;;
82811;SDS011;72567;55.696;37.960;2023-10-31T12:43:55;15.70;;;9.07;;
82811;SDS011;72567;55.696;37.960;2023-10-31T12:46:56;17.42;;;10.55;;
82811;SDS011;72567;55.696;37.960;2023-10-31T12:50:06;17.60;;;10.18;;
82811;SDS011;72567;55.696;37.960;2023-10-31T12:53:22;17.35;;;10.70;;
82811;SDS011;72567;55.696;37.960;2023-10-31T12:56:36;19.75;;;12.63;;
82811;SDS011;72567;55.696;37.960;2023-10-31T12:59:40;20.90;;;12.73;;
82811;SDS011;72567;55.696;37.960;2023-10-31T13:02:41;21.05;;;13.48;;
82811;SDS011;72567;55.696;37.960;2023-10-31T13:05:42;20.00;;;12.57;;
82811;SDS011;72567;55.696;37.960;2023-10-31T13:08:45;22.23;;;13.65;;
82811;SDS011;72567;55.696;37.960;2023-10-31T13:11:48;19.50;;;12.63;;
82811;SDS011;72567;55.696;37.960;2023-10-31T13:14:49;23.35;;;12.93;;
82811;SDS011;72567;55.696;37.960;2023-10-31T13:17:52;26.15;;;15.93;;
82811;SDS011;72567;55.696;37.960;2023-10-31T13:20:53;25.25;;;13.32;;
82811;SDS011;72567;55.696;37.960;2023-10-31T13:23:53;23.90;;;13.70;;
82811;SDS011;72567;55.696;37.960;2023-10-31T13:26:54;23.60;;;13.88;;
82811;SDS011;72567;55.696;37.960;2023-10-31T13:29:54;20.45;;;12.20;;
82811;SDS011;72567;55.696;37.960;2023-10-31T13:32:55;22.77;;;12.27;;
82811;SDS011;72567;55.696;37.960;2023-10-31T13:35:57;23.42;;;13.65;;
82811;SDS011;72567;55.696;37.960;2023-10-31T13:38:58;26.08;;;13.60;;
82811;SDS011;72567;55.696;37.960;2023-10-31T13:41:58;22.70;;;11.50;;
82811;SDS011;72567;55.696;37.960;2023-10-31T13:44:59;28.02;;;13.13;;
82811;SDS011;72567;55.696;37.960;2023-10-31T13:47:59;23.30;;;13.30;;
82811;SDS011;72567;55.696;37.960;2023-10-31T13:51:00;28.75;;;15.38;;
82811;SDS011;72567;55.696;37.960;2023-10-31T13:54:00;27.73;;;13.57;;
82811;SDS011;72567;55.696;37.960;2023-10-31T13:57:02;27.48;;;14.48;;
82811;SDS011;72567;55.696;37.960;2023-10-31T14:00:03;29.88;;;14.82;;
82811;SDS011;72567;55.696;37.960;2023-10-31T14:03:08;26.60;;;13.43;;
82811;SDS011;72567;55.696;37.960;2023-10-31T14:06:10;29.70;;;12.80;;
82811;SDS011;72567;55.696;37.960;2023-10-31T14:09:12;23.55;;;12.95;;
82811;SDS011;72567;55.696;37.960;2023-10-31T14:12:13;25.73;;;12.32;;
82811;SDS011;72567;55.696;37.960;2023-10-31T14:15:13;30.80;;;11.20;;
82811;SDS011;72567;55.696;37.960;2023-10-31T14:18:14;19.45;;;11.50;;
82811;SDS011;72567;55.696;37.960;2023-10-31T14:21:15;23.13;;;10.63;;
82811;SDS011;72567;55.696;37.960;2023-10-31T14:24:16;24.92;;;13.82;;
82811;SDS011;72567;55.696;37.960;2023-10-31T14:27:17;22.35;;;11.52;;
82811;SDS011;72567;55.696;37.960;2023-10-31T14:30:18;23.77;;;12.57;;
82811;SDS011;72567;55.696;37.960;2023-10-31T14:33:18;29.48;;;13.52;;
82811;SDS011;72567;55.696;37.960;2023-10-31T14:36:19;26.65;;;14.20;;
82811;SDS011;72567;55.696;37.960;2023-10-31T14:39:20;31.90;;;14.85;;
82811;SDS011;72567;55.696;37.960;2023-10-31T14:42:20;28.17;;;14.20;;
82811;SDS011;72567;55.696;37.960;2023-10-31T14:45:21;27.45;;;13.77;;
82811;SDS011;72567;55.696;37.960;2023-10-31T14:48:22;30.20;;;15.13;;
82811;SDS011;72567;55.696;37.960;2023-10-31T14:51:22;32.00;;;15.15;;
82811;SDS011;72567;55.696;37.960;2023-10-31T14:54:23;30.58;;;14.98;;
82811;SDS011;72567;55.696;37.960;2023-10-31T14:57:25;31.38;;;15.00;;
82811;SDS011;72567;55.696;37.960;2023-10-31T15:00:25;39.17;;;15.70;;
82811;SDS011;72567;55.696;37.960;2023-10-31T15:03:26;40.70;;;17.60;;
82811;SDS011;72567;55.696;37.960;2023-10-31T15:06:26;44.28;;;18.10;;
82811;SDS011;72567;55.696;37.960;2023-10-31T15:09:27;53.40;;;20.35;;
82811;SDS011;72567;55.696;37.960;2023-10-31T15:12:27;61.65;;;23.08;;
82811;SDS011;72567;55.696;37.960;2023-10-31T15:15:28;64.43;;;24.08;;
82811;SDS011;72567;55.696;37.960;2023-10-31T15:18:29;60.60;;;23.92;;
82811;SDS011;72567;55.696;37.960;2023-10-31T15:21:29;52.33;;;22.10;;
82811;SDS011;72567;55.696;37.960;2023-10-31T15:24:30;83.03;;;24.75;;
82811;SDS011;72567;55.696;37.960;2023-10-31T15:27:33;58.00;;;21.77;;
82811;SDS011;72567;55.696;37.960;2023-10-31T15:30:33;47.15;;;17.83;;
82811;SDS011;72567;55.696;37.960;2023-10-31T15:33:34;46.40;;;14.88;;
82811;SDS011;72567;55.696;37.960;2023-10-31T15:36:34;39.97;;;13.85;;
82811;SDS011;72567;55.696;37.960;2023-10-31T15:39:35;29.80;;;14.10;;
82811;SDS011;72567;55.696;37.960;2023-10-31T15:42:36;33.15;;;13.35;;
82811;SDS011;72567;55.696;37.960;2023-10-31T15:45:36;28.23;;;12.52;;
82811;SDS011;72567;55.696;37.960;2023-10-31T15:48:40;25.67;;;13.15;;
82811;SDS011;72567;55.696;37.960;2023-10-31T15:51:42;31.38;;;14.65;;
82811;SDS011;72567;55.696;37.960;2023-10-31T15:54:45;25.52;;;14.23;;
82811;SDS011;72567;55.696;37.960;2023-10-31T15:57:46;38.10;;;14.45;;
82811;SDS011;72567;55.696;37.960;2023-10-31T16:00:47;27.70;;;12.60;;
82811;SDS011;72567;55.696;37.960;2023-10-31T16:03:47;33.35;;;15.10;;
82811;SDS011;72567;55.696;37.960;2023-10-31T16:06:48;27.33;;;14.02;;
82811;SDS011;72567;55.696;37.960;2023-10-31T16:09:48;27.15;;;13.63;;
82811;SDS011;72567;55.696;37.960;2023-10-31T16:12:49;24.23;;;13.10;;
82811;SDS011;72567;55.696;37.960;2023-10-31T16:15:50;49.63;;;15.77;;
82811;SDS011;72567;55.696;37.960;2023-10-31T16:18:51;28.60;;;14.38;;
82811;SDS011;72567;55.696;37.960;2023-10-31T16:21:52;25.85;;;13.45;;
82811;SDS011;72567;55.696;37.960;2023-10-31T16:24:52;28.23;;;14.25;;
82811;SDS011;72567;55.696;37.960;2023-10-31T16:27:53;34.72;;;14.32;;
82811;SDS011;72567;55.696;37.960;2023-10-31T16:30:54;33.20;;;15.40;;
82811;SDS011;72567;55.696;37.960;2023-10-31T16:33:54;45.95;;;19.40;;
82811;SDS011;72567;55.696;37.960;2023-10-31T16:36:55;43.60;;;19.38;;
82811;SDS011;72567;55.696;37.960;2023-10-31T16:39:56;82.35;;;24.05;;
82811;SDS011;72567;55.696;37.960;2023-10-31T16:42:56;46.45;;;18.48;;
82811;SDS011;72567;55.696;37.960;2023-10-31T16:45:57;69.30;;;16.77;;
82811;SDS011;72567;55.696;37.960;2023-10-31T16:48:58;169.10;;;23.67;;
82811;SDS011;72567;55.696;37.960;2023-10-31T16:52:00;160.95;;;23.10;;
82811;SDS011;72567;55.696;37.960;2023-10-31T16:55:01;94.00;;;19.70;;
82811;SDS011;72567;55.696;37.960;2023-10-31T16:58:05;61.97;;;16.77;;
82811;SDS011;72567;55.696;37.960;2023-10-31T17:01:09;36.70;;;15.68;;
82811;SDS011;72567;55.696;37.960;2023-10-31T17:04:10;32.28;;;15.40;;
82811;SDS011;72567;55.696;37.960;2023-10-31T17:07:11;27.85;;;14.00;;
82811;SDS011;72567;55.696;37.960;2023-10-31T17:10:12;35.28;;;15.65;;
82811;SDS011;72567;55.696;37.960;2023-10-31T17:13:16;32.95;;;14.48;;
82811;SDS011;72567;55.696;37.960;2023-10-31T17:16:16;31.98;;;14.60;;
82811;SDS011;72567;55.696;37.960;2023-10-31T17:19:17;48.00;;;16.98;;
82811;SDS011;72567;55.696;37.960;2023-10-31T17:22:18;26.20;;;14.43;;
82811;SDS011;72567;55.696;37.960;2023-10-31T17:25:19;38.05;;;14.77;;
82811;SDS011;72567;55.696;37.960;2023-10-31T17:28:24;69.53;;;17.75;;
82811;SDS011;72567;55.696;37.960;2023-10-31T17:31:27;50.67;;;15.98;;
82811;SDS011;72567;55.696;37.960;2023-10-31T17:34:28;70.63;;;19.23;;
82811;SDS011;72567;55.696;37.960;2023-10-31T17:37:29;41.20;;;14.75;;
82811;SDS011;72567;55.696;37.960;2023-10-31T17:40:30;42.45;;;15.32;;
82811;SDS011;72567;55.696;37.960;2023-10-31T17:43:32;78.40;;;18.27;;
82811;SDS011;72567;55.696;37.960;2023-10-31T17:46:33;29.65;;;16.15;;